Time;durP1;ratioP1;P1;durP2;ratioP2;P2;SDS_P1;SDS_P2;PMS_P1;PMS_P2;Temp;Humidity;BMP_temperature;BMP_pressure;BME280_temperature;BME280_humidity;BME280_pressure;Samples;Min_cycle;Max_cycle;Signal;HPM_P1;HPM_P2
2023/04/15 00:07:09;702439.00;2.34;1211.47;0.00;0.00;0.62;;;;;12.40;1.00;;;;;;2278667;61;1142;-90
2023/04/15 00:09:38;656445.00;2.19;1131.79;15784.00;0.05;27.97;;;;;12.60;1.00;;;;;;2339506;56;3743;-85
2023/04/15 01:15:46;716027.00;2.39;1235.04;32810.00;0.11;57.45;;;;;11.70;1.00;;;;;;2283253;61;1052;-89
2023/04/15 01:45:56;455241.00;1.52;784.80;0.00;0.00;0.62;;;;;12.00;1.00;;;;;;2283360;61;1015;-89
2023/04/15 02:11:02;803650.00;2.68;1387.49;0.00;0.00;0.62;;;;;11.30;1.00;;;;;;857841;56;3572;-89
2023/04/15 02:31:08;1163579.00;3.88;2024.51;158023.00;0.53;273.63;;;;;13.10;1.00;;;;;;1586196;56;3190;-90
2023/04/15 03:21:27;610126.00;2.03;1051.71;30877.00;0.10;54.10;;;;;10.00;1.00;;;;;;2283291;61;1276;-88
2023/04/15 03:26:26;696629.00;2.32;1201.39;0.00;0.00;0.62;;;;;9.80;1.00;;;;;;2283052;61;1331;-87
2023/04/15 03:59:00;926426.00;3.09;1602.58;0.00;0.00;0.62;;;;;9.70;1.00;;;;;;2348726;40;3599;-86
2023/04/15 04:14:08;949736.00;3.17;1643.65;95942.00;0.32;166.57;;;;;10.10;1.00;;;;;;2357380;55;3573;-88
2023/04/15 04:21:43;978418.00;3.26;1694.28;114980.00;0.38;199.42;;;;;9.70;1.00;;;;;;1742452;55;3071;-88
2023/04/15 04:31:39;1222888.00;4.08;2131.66;114883.00;0.38;199.26;;;;;9.70;1.00;;;;;;2283677;61;1316;-88
2023/04/15 04:41:42;1118267.00;3.73;1943.12;50746.00;0.17;88.48;;;;;9.90;1.00;;;;;;2283803;61;1394;-89
2023/04/15 04:59:14;708802.00;2.36;1222.51;0.00;0.00;0.62;;;;;10.20;1.00;;;;;;2283602;61;1144;-90
2023/04/15 05:01:41;139740.00;0.47;242.12;0.00;0.00;0.62;;;;;10.00;1.00;;;;;;2282050;61;1228;-90
2023/04/15 05:06:43;841895.00;2.81;1454.29;0.00;0.00;0.62;;;;;9.80;1.00;;;;;;2284026;61;1198;-89
2023/04/15 05:09:10;481202.00;1.60;829.47;70755.00;0.24;123.07;;;;;9.60;1.00;;;;;;2282013;61;1550;-88
2023/04/15 05:29:22;729339.00;2.43;1258.15;0.00;0.00;0.62;;;;;11.20;1.00;;;;;;2279702;61;1149;-90
2023/04/15 05:31:49;198362.00;0.66;343.10;0.00;0.00;0.62;;;;;11.80;1.00;;;;;;2277941;61;1415;-90
2023/04/15 08:14:16;1053068.00;3.51;1826.69;139063.00;0.46;240.96;;;;;21.30;1.00;;;;;;2279453;61;1875;-92
2023/04/15 10:51:24;345987.00;1.15;596.96;0.00;0.00;0.62;;;;;18.80;1.00;;;;;;2445826;41;3087;31
2023/04/15 11:12:15;911378.00;3.04;1576.11;0.00;0.00;0.62;;;;;19.40;1.00;;;;;;2295333;60;1407;-89
2023/04/15 11:42:49;766904.00;2.56;1323.46;74340.00;0.25;129.26;;;;;19.30;1.00;;;;;;2266118;61;1273;-91
2023/04/15 12:08:09;750195.00;2.50;1294.40;0.00;0.00;0.62;;;;;17.40;1.00;;;;;;2429015;41;3599;-88
2023/04/15 12:23:22;579966.00;1.93;999.64;13808.00;0.05;24.55;;;;;17.10;1.00;;;;;;2263199;61;1266;-89
2023/04/15 12:28:28;555914.00;1.85;958.16;0.00;0.00;0.62;;;;;17.30;1.00;;;;;;2267536;61;1247;-90
2023/04/15 12:51:28;222596.00;0.74;384.81;0.00;0.00;0.62;;;;;17.90;1.00;;;;;;2419324;41;3220;31
2023/04/15 13:09:17;1034181.00;3.45;1793.11;0.00;0.00;0.62;;;;;17.10;1.00;;;;;;2320541;40;3416;-88
2023/04/15 15:14:25;775806.00;2.59;1338.96;12616.00;0.04;22.48;;;;;16.10;1.00;;;;;;2278545;61;1223;-91
2023/04/15 15:34:49;956278.00;3.19;1655.18;100496.00;0.33;174.43;;;;;14.00;1.00;;;;;;2324201;39;3509;-87
2023/04/15 15:42:16;1005264.00;3.35;1741.80;0.00;0.00;0.62;;;;;13.00;1.00;;;;;;1949690;41;3395;-88
2023/04/15 15:47:19;476990.00;1.59;822.22;0.00;0.00;0.62;;;;;12.90;1.00;;;;;;1008771;39;3183;-88
2023/04/15 15:50:00;339208.00;1.13;585.31;0.00;0.00;0.62;;;;;12.70;1.00;;;;;;2295457;39;3726;-86
2023/04/15 15:52:27;482300.00;1.61;831.36;0.00;0.00;0.62;;;;;12.90;1.00;;;;;;2299275;41;3443;-88
2023/04/15 15:57:30;769828.00;2.57;1328.55;0.00;0.00;0.62;;;;;13.00;1.00;;;;;;2265344;60;1391;-85
2023/04/15 17:05:53;1476691.00;4.92;2599.34;87262.00;0.29;151.58;;;;;13.20;1.00;;;;;;1597000;41;3403;-86
2023/04/15 17:10:56;1189479.00;3.96;2071.21;0.00;0.00;0.62;;;;;12.60;1.00;;;;;;2262810;61;1944;-89
2023/04/15 17:13:30;893342.00;2.98;1544.43;21681.00;0.07;38.18;;;;;12.70;1.00;;;;;;2260742;61;1697;-89
2023/04/15 17:18:36;1005909.00;3.35;1742.94;0.00;0.00;0.62;;;;;12.60;1.00;;;;;;2266545;61;1324;-88
2023/04/15 18:38:11;1191681.00;3.97;2075.19;98885.00;0.33;171.65;;;;;14.10;1.00;;;;;;2068697;41;3544;-87
2023/04/15 18:40:38;248663.00;0.83;429.65;94297.00;0.31;163.73;;;;;14.00;1.00;;;;;;2288881;60;913;-87
2023/04/15 18:43:05;177864.00;0.59;307.81;0.00;0.00;0.62;;;;;13.50;1.00;;;;;;2288840;60;1407;-88
2023/04/15 18:45:32;120739.00;0.40;209.36;0.00;0.00;0.62;;;;;13.50;1.00;;;;;;2288757;60;1453;-85
2023/04/15 18:47:59;188473.00;0.63;326.08;0.00;0.00;0.62;;;;;13.50;1.00;;;;;;2288885;60;952;-87
2023/04/15 18:50:26;172616.00;0.58;298.77;0.00;0.00;0.62;;;;;13.70;1.00;;;;;;2288583;60;2003;-86
2023/04/15 18:52:53;106605.00;0.36;184.97;0.00;0.00;0.62;;;;;13.50;1.00;;;;;;2288706;60;1421;-85
2023/04/15 18:55:23;56420.00;0.19;98.29;0.00;0.00;0.62;;;;;13.30;1.00;;;;;;2288736;60;1528;-86
2023/04/15 18:57:51;205622.00;0.69;355.60;0.00;0.00;0.62;;;;;13.60;1.00;;;;;;2288813;60;1133;-87
2023/04/15 19:00:19;192481.00;0.64;332.98;0.00;0.00;0.62;;;;;13.90;1.00;;;;;;2288730;60;929;-87
2023/04/15 19:02:46;1830967.00;6.10;3282.82;264352.00;0.88;456.63;;;;;13.90;1.00;;;;;;2288633;60;1574;-87
2023/04/15 19:05:13;1413193.00;4.71;2480.81;238337.00;0.79;411.89;;;;;13.70;1.00;;;;;;2288728;60;1583;-87
2023/04/15 19:07:41;502865.00;1.68;866.76;90063.00;0.30;156.42;;;;;13.50;1.00;;;;;;2288725;60;1051;-87
2023/04/15 19:10:08;463808.00;1.55;799.54;88733.00;0.30;154.12;;;;;13.60;1.00;;;;;;2288615;60;1011;-87
2023/04/15 19:12:36;234412.00;0.78;405.14;95022.00;0.32;164.98;;;;;13.40;1.00;;;;;;2288591;60;2013;-88
2023/04/15 19:15:04;201666.00;0.67;348.79;0.00;0.00;0.62;;;;;13.40;1.00;;;;;;2288808;60;998;-87
2023/04/15 19:17:31;121783.00;0.41;211.16;0.00;0.00;0.62;;;;;13.70;1.00;;;;;;2288627;60;1579;-87
2023/04/15 19:19:59;180112.00;0.60;311.68;0.00;0.00;0.62;;;;;13.90;1.00;;;;;;2288784;60;1012;-88
2023/04/15 19:22:29;163092.00;0.54;282.37;0.00;0.00;0.62;;;;;13.90;1.00;;;;;;2288674;60;1276;-88
2023/04/15 19:24:56;166767.00;0.56;288.70;0.00;0.00;0.62;;;;;14.00;1.00;;;;;;2288475;60;1292;-89
2023/04/15 19:27:24;264117.00;0.88;456.23;0.00;0.00;0.62;;;;;14.20;1.00;;;;;;2288627;60;1447;-89
2023/04/15 19:29:52;251622.00;0.84;434.74;0.00;0.00;0.62;;;;;14.20;1.00;;;;;;2288565;60;1610;-89
2023/04/15 19:32:20;294897.00;0.98;509.15;0.00;0.00;0.62;;;;;14.20;1.00;;;;;;2288418;60;2029;-90
2023/04/15 19:34:48;182231.00;0.61;315.33;0.00;0.00;0.62;;;;;14.40;1.00;;;;;;2288929;60;990;-88
2023/04/15 19:37:15;996304.00;3.32;1725.93;180452.00;0.60;312.27;;;;;14.50;1.00;;;;;;2288944;60;1087;-87
2023/04/15 19:39:43;1156775.00;3.86;2012.26;49132.00;0.16;85.69;;;;;14.40;1.00;;;;;;2274559;60;1420;-88
2023/04/15 19:42:10;1709277.00;5.70;3043.46;94611.00;0.32;164.27;;;;;14.50;1.00;;;;;;2272196;60;1482;-88
2023/04/15 19:44:41;1568780.00;5.23;2773.22;200557.00;0.67;346.88;;;;;14.50;1.00;;;;;;2272168;60;1016;-87
2023/04/15 19:47:10;859782.00;2.87;1485.59;167202.00;0.56;289.45;;;;;14.30;1.00;;;;;;2272147;60;1553;-87
2023/04/15 19:49:38;359488.00;1.20;620.17;88595.00;0.30;153.88;;;;;14.20;1.00;;;;;;2272155;60;987;-87
2023/04/15 19:52:05;234876.00;0.78;405.94;0.00;0.00;0.62;;;;;14.40;1.00;;;;;;2272082;60;1919;-88
2023/04/15 19:54:34;227084.00;0.76;392.53;0.00;0.00;0.62;;;;;14.20;1.00;;;;;;2272001;60;1959;-87
2023/04/15 19:57:03;144121.00;0.48;249.67;0.00;0.00;0.62;;;;;14.30;1.00;;;;;;2272089;60;978;-87
2023/04/15 19:59:30;342217.00;1.14;590.48;0.00;0.00;0.62;;;;;14.40;1.00;;;;;;2272161;60;1145;-87
2023/04/15 20:01:57;269589.00;0.90;465.64;19201.00;0.06;33.89;;;;;14.20;1.00;;;;;;2272119;60;2458;-87
2023/04/15 20:04:26;291981.00;0.97;504.13;0.00;0.00;0.62;;;;;14.10;1.00;;;;;;2272161;60;1103;-87
2023/04/15 20:06:53;719483.00;2.40;1241.04;25312.00;0.08;44.47;;;;;14.20;1.00;;;;;;2272091;60;1714;-88
2023/04/15 20:09:20;1557800.00;5.19;2752.36;50625.00;0.17;88.27;;;;;14.20;1.00;;;;;;2272138;60;1082;-88
2023/04/15 20:11:47;816631.00;2.72;1410.14;116614.00;0.39;202.24;;;;;13.90;1.00;;;;;;2272098;60;1909;-87
2023/04/15 20:14:14;335197.00;1.12;578.42;113730.00;0.38;197.27;;;;;14.00;1.00;;;;;;2272151;60;1172;-88
2023/04/15 20:16:41;98998.00;0.33;171.84;0.00;0.00;0.62;;;;;13.80;1.00;;;;;;2271976;60;2215;-87
2023/04/15 20:19:10;150609.00;0.50;260.86;0.00;0.00;0.62;;;;;14.10;1.00;;;;;;2272173;60;927;-87
2023/04/15 20:21:39;170511.00;0.57;295.15;0.00;0.00;0.62;;;;;14.20;1.00;;;;;;2272033;60;1369;-87
2023/04/15 20:24:06;249692.00;0.83;431.42;0.00;0.00;0.62;;;;;14.30;1.00;;;;;;2272142;60;991;-87
2023/04/15 20:26:33;223241.00;0.74;385.92;0.00;0.00;0.62;;;;;14.40;1.00;;;;;;2272153;60;1136;-87
2023/04/15 20:29:00;176694.00;0.59;305.80;0.00;0.00;0.62;;;;;14.40;1.00;;;;;;2271996;60;1415;-89
2023/04/15 20:31:27;183338.00;0.61;317.24;0.00;0.00;0.62;;;;;14.30;1.00;;;;;;2272038;60;1914;-88
2023/04/15 20:33:54;262636.00;0.88;453.68;0.00;0.00;0.62;;;;;14.20;1.00;;;;;;2272102;60;1575;-88
2023/04/15 20:36:21;270456.00;0.90;467.13;0.00;0.00;0.62;;;;;14.10;1.00;;;;;;2272021;60;1060;-88
2023/04/15 20:38:49;1944852.00;6.48;3511.69;214539.00;0.72;370.95;;;;;13.80;1.00;;;;;;2271986;60;1334;-88
2023/04/15 20:41:16;1092968.00;3.64;1897.85;139165.00;0.46;241.13;;;;;13.80;1.00;;;;;;2272073;60;1014;-87
2023/04/15 20:43:43;569934.00;1.90;982.33;100058.00;0.33;173.67;;;;;13.90;1.00;;;;;;2271900;60;1123;-88
2023/04/15 20:46:10;455477.00;1.52;785.20;91633.00;0.31;159.13;;;;;13.90;1.00;;;;;;2272002;60;992;-87
2023/04/15 20:48:37;375357.00;1.25;647.44;80709.00;0.27;140.26;;;;;13.90;1.00;;;;;;2271964;60;1502;-87
2023/04/15 20:51:05;109798.00;0.37;190.48;0.00;0.00;0.62;;;;;14.10;1.00;;;;;;2271990;60;1996;-87
2023/04/15 20:53:32;237286.00;0.79;410.08;5985.00;0.02;10.99;;;;;14.00;1.00;;;;;;2271930;60;1397;-88
2023/04/15 20:56:00;228703.00;0.76;395.32;0.00;0.00;0.62;;;;;13.90;1.00;;;;;;2271865;60;1543;-88
2023/04/15 20:58:29;237711.00;0.79;410.81;0.00;0.00;0.62;;;;;13.80;1.00;;;;;;2285222;55;3753;-88
2023/04/15 21:00:57;184074.00;0.61;318.51;0.00;0.00;0.62;;;;;13.70;1.00;;;;;;2284312;60;1555;-89
2023/04/15 21:03:24;258399.00;0.86;446.40;0.00;0.00;0.62;;;;;13.70;1.00;;;;;;2284390;60;1701;-88
2023/04/15 21:05:51;86734.00;0.29;150.67;0.00;0.00;0.62;;;;;13.60;1.00;;;;;;2284553;60;1667;-88
2023/04/15 21:08:18;176933.00;0.59;306.21;0.00;0.00;0.62;;;;;13.50;1.00;;;;;;2284441;60;1093;-88
2023/04/15 21:10:45;832509.00;2.78;1437.88;60110.00;0.20;104.67;;;;;13.40;1.00;;;;;;2284549;60;1128;-88
2023/04/15 21:13:16;1436176.00;4.79;2523.59;56794.00;0.19;98.93;;;;;13.20;1.00;;;;;;2284241;60;2018;-88
2023/04/15 21:15:44;1359730.00;4.53;2381.84;118420.00;0.39;205.36;;;;;13.40;1.00;;;;;;2284423;60;1603;-85
2023/04/15 21:18:11;1078614.00;3.60;1872.22;75759.00;0.25;131.71;;;;;13.50;1.00;;;;;;2287545;60;1159;-87
2023/04/15 21:20:38;117489944.00;391.63;65694884.00;105863.00;0.35;183.69;;;;;13.80;1.00;;;;;;2284496;60;979;-87
2023/04/15 21:23:05;139449.00;0.46;241.62;0.00;0.00;0.62;;;;;13.70;1.00;;;;;;2284488;60;1398;-86
2023/04/15 21:25:32;167304.00;0.56;289.62;0.00;0.00;0.62;;;;;13.80;1.00;;;;;;2284351;60;1567;-87
2023/04/15 21:27:59;74090.00;0.25;128.83;0.00;0.00;0.62;;;;;13.70;1.00;;;;;;2284423;60;1140;-89
2023/04/15 21:30:27;237479.00;0.79;410.41;0.00;0.00;0.62;;;;;13.80;1.00;;;;;;2284461;60;1008;-87
2023/04/15 21:32:55;208605.00;0.70;360.73;0.00;0.00;0.62;;;;;13.90;1.00;;;;;;2284445;60;1919;-88
2023/04/15 21:35:22;110258.00;0.37;191.28;0.00;0.00;0.62;;;;;13.90;1.00;;;;;;2284427;60;1071;-87
2023/04/15 21:37:48;1963027.00;6.54;3548.68;178029.00;0.59;308.10;;;;;13.90;1.00;;;;;;2284454;60;1129;-87
2023/04/15 21:40:17;1415624.00;4.72;2485.33;96839.00;0.32;168.12;;;;;13.90;1.00;;;;;;2284427;60;923;-88
2023/04/15 21:42:44;420998.00;1.40;725.91;94556.00;0.32;164.17;;;;;14.10;1.00;;;;;;2284237;60;1387;-89
2023/04/15 21:45:12;188690.00;0.63;326.45;0.00;0.00;0.62;;;;;13.80;1.00;;;;;;2284424;60;1028;-88
2023/04/15 21:47:40;191297.00;0.64;330.94;0.00;0.00;0.62;;;;;13.80;1.00;;;;;;2284287;60;1442;-88
2023/04/15 21:50:08;306660.00;1.02;529.37;0.00;0.00;0.62;;;;;13.90;1.00;;;;;;2284447;60;1040;-87
2023/04/15 21:52:35;108217.00;0.36;187.75;0.00;0.00;0.62;;;;;13.80;1.00;;;;;;2284272;60;1923;-87
2023/04/15 21:55:02;259297.00;0.86;447.94;24478.00;0.08;43.02;;;;;13.70;1.00;;;;;;2284136;60;909;-91
2023/04/15 21:57:30;248497.00;0.83;429.37;0.00;0.00;0.62;;;;;13.70;1.00;;;;;;2284277;60;1080;-88
2023/04/15 21:59:57;1071653.00;3.57;1859.80;52968.00;0.18;92.32;;;;;13.80;1.00;;;;;;2287332;60;1274;-88
2023/04/15 22:02:23;1839791.00;6.13;3300.38;135736.00;0.45;235.22;;;;;13.80;1.00;;;;;;2288464;60;1287;-87
2023/04/15 22:04:52;425364.00;1.42;733.41;95175.00;0.32;165.24;;;;;13.80;1.00;;;;;;2288275;60;1003;-88
2023/04/15 22:07:19;270559.00;0.90;467.31;0.00;0.00;0.62;;;;;13.60;1.00;;;;;;2288396;60;1031;-87
2023/04/15 22:09:46;136321.00;0.45;236.23;0.00;0.00;0.62;;;;;13.70;1.00;;;;;;2288392;60;1108;-88
2023/04/15 22:12:13;242773.00;0.81;419.52;0.00;0.00;0.62;;;;;13.80;1.00;;;;;;2288298;60;2014;-87
2023/04/15 22:14:40;217270.00;0.72;375.65;0.00;0.00;0.62;;;;;13.80;1.00;;;;;;2288428;60;1051;-91
2023/04/15 22:17:07;223948.00;0.75;387.14;0.00;0.00;0.62;;;;;13.70;1.00;;;;;;2288495;60;1117;-89
2023/04/15 22:19:34;134409.00;0.45;232.93;0.00;0.00;0.62;;;;;13.90;1.00;;;;;;2288416;60;1074;-89
2023/04/15 22:22:02;1046333.00;3.49;1814.71;31143.00;0.10;54.56;;;;;13.90;1.00;;;;;;2288053;60;1483;-88
2023/04/15 22:24:30;1231003.00;4.10;2146.38;53949.00;0.18;94.02;;;;;13.90;1.00;;;;;;2288430;60;1688;-88
2023/04/15 22:26:57;1265995.00;4.22;2210.01;71289.00;0.24;123.99;;;;;13.80;1.00;;;;;;2288228;60;1698;-87
2023/04/15 22:29:25;994469.00;3.31;1722.68;127347.00;0.42;220.75;;;;;13.60;1.00;;;;;;2288301;60;1663;-87
2023/04/15 22:31:52;450983.00;1.50;777.47;95159.00;0.32;165.22;;;;;13.60;1.00;;;;;;2288316;60;2008;-89
2023/04/15 22:36:52;673332.00;2.24;1161.02;0.00;0.00;0.62;;;;;13.90;1.00;;;;;;2285788;60;1406;-88
2023/04/15 22:39:20;226743.00;0.76;391.95;0.00;0.00;0.62;;;;;13.80;1.00;;;;;;2284200;60;1714;-88
2023/04/15 22:41:48;427236.00;1.42;736.63;0.00;0.00;0.62;;;;;13.80;1.00;;;;;;2283943;60;2217;-89
2023/04/15 22:44:15;188801.00;0.63;326.64;0.00;0.00;0.62;;;;;13.80;1.00;;;;;;2284230;60;981;-88
2023/04/15 22:46:42;188942.00;0.63;326.89;0.00;0.00;0.62;;;;;13.80;1.00;;;;;;2284247;60;1435;-87
2023/04/15 22:49:10;265440.00;0.88;458.50;0.00;0.00;0.62;;;;;13.70;1.00;;;;;;2284034;60;1078;-89
2023/04/15 22:51:37;1799903.00;6.00;3221.23;256500.00;0.86;443.13;;;;;13.60;1.00;;;;;;2284078;60;1268;-89
2023/04/15 22:54:04;889247.00;2.96;1537.24;124184.00;0.41;215.30;;;;;13.80;1.00;;;;;;2284104;60;2072;-87
2023/04/15 22:56:32;388935.00;1.30;670.78;98827.00;0.33;171.55;;;;;13.70;1.00;;;;;;2284252;60;1698;-87
2023/04/15 22:58:59;101809.00;0.34;176.69;0.00;0.00;0.62;;;;;13.70;1.00;;;;;;2284305;60;1046;-87
2023/04/15 23:01:26;187637.00;0.63;324.64;0.00;0.00;0.62;;;;;13.70;1.00;;;;;;2283958;60;1560;-88
2023/04/15 23:03:53;229329.00;0.76;396.39;0.00;0.00;0.62;;;;;13.70;1.00;;;;;;2283998;60;1805;-88
2023/04/15 23:06:21;316233.00;1.05;545.82;0.00;0.00;0.62;;;;;13.70;1.00;;;;;;2284171;60;951;-88
2023/04/15 23:08:49;240225.00;0.80;415.14;0.00;0.00;0.62;;;;;13.60;1.00;;;;;;2284193;60;1742;-89
2023/04/15 23:11:17;1360149.00;4.53;2382.62;47095.00;0.16;82.16;;;;;13.70;1.00;;;;;;2284061;60;1482;-87
2023/04/15 23:13:45;1126125.00;3.75;1957.21;94040.00;0.31;163.28;;;;;13.50;1.00;;;;;;2283922;60;2000;-89
2023/04/15 23:16:12;1112641.00;3.71;1933.04;89428.00;0.30;155.32;;;;;13.40;1.00;;;;;;2284171;60;1531;-89
2023/04/15 23:18:39;1295245.00;4.32;2263.41;136467.00;0.45;236.48;;;;;13.50;1.00;;;;;;2292653;40;3583;-88
2023/04/15 23:21:06;1642278.00;5.47;2913.81;176267.00;0.59;305.06;;;;;13.50;1.00;;;;;;2284790;61;1493;-88
2023/04/15 23:23:33;1201400.00;4.00;2092.75;178192.00;0.59;308.38;;;;;13.50;1.00;;;;;;2284774;61;1316;-88
2023/04/15 23:26:02;1073182.00;3.58;1862.53;114469.00;0.38;198.54;;;;;13.50;1.00;;;;;;2284022;60;1414;-87
2023/04/15 23:28:29;661909.00;2.21;1141.25;109752.00;0.37;190.40;;;;;13.50;1.00;;;;;;2284109;60;1752;-89
2023/04/15 23:30:58;426051.00;1.42;734.59;91582.00;0.31;159.04;;;;;13.50;1.00;;;;;;2284136;60;1572;-88
2023/04/15 23:33:26;519783.00;1.73;895.89;85644.00;0.29;148.79;;;;;13.50;1.00;;;;;;2284101;60;1996;-88
2023/04/15 23:35:53;383108.00;1.28;660.77;100480.00;0.33;174.40;;;;;13.50;1.00;;;;;;2284210;60;900;-88
2023/04/15 23:38:20;281100.00;0.94;485.43;0.00;0.00;0.62;;;;;13.40;1.00;;;;;;2284166;60;1005;-87
2023/04/15 23:40:46;204482.00;0.68;353.64;0.00;0.00;0.62;;;;;13.40;1.00;;;;;;2283951;60;1615;-89
2023/04/15 23:43:13;362694.00;1.21;625.68;0.00;0.00;0.62;;;;;13.40;1.00;;;;;;2283989;60;1453;-87
2023/04/15 23:45:40;413093.00;1.38;712.31;0.00;0.00;0.62;;;;;13.40;1.00;;;;;;2284036;60;993;-87
2023/04/15 23:50:38;708093.00;2.36;1221.28;0.00;0.00;0.62;;;;;13.50;1.00;;;;;;2281907;61;1407;-87
2023/04/15 23:53:05;182441.00;0.61;315.69;0.00;0.00;0.62;;;;;13.50;1.00;;;;;;2279721;61;2025;-89
2023/04/15 23:55:32;357478.00;1.19;616.71;0.00;0.00;0.62;;;;;13.70;1.00;;;;;;2279949;61;988;-88
2023/04/15 23:57:59;249814.00;0.83;431.63;0.00;0.00;0.62;;;;;13.70;1.00;;;;;;2280043;61;898;-88
